Back to Top

Language: 

My Weather Underground Personal Weather Station Historical Data with Graphs...

Delerius Weather Station Historical Data
Daily Summary for August 29, 2017 Units:  English    Metric   Both
« Previous Day
Next Day »
Daily Weekly Monthly Yearly Custom
  High: Low: Average:
Temperature: 66.6 °F 54.3 °F 60.6 °F
Dew Point: 59.1 °F 46.0 °F 52.9 °F
Humidity: 91 % 52 % 77 %
Wind Speed: 12.0 mph 0.0 mph 4.4 mph
Wind Gust: 20.0 mph - -
Wind:- - WNW
Pressure: 29.94 in 29.89 in -
Precipitation: 0.00 in    
Historical Graphs
 
 
Tabular Data for August 29, 2017
Time Temperature Dew Point Pressure Wind Wind Speed Wind Gust Humidity Rainfall Rate (Hourly) solar Conditions
00:01 61.3 °F 56.8 °F 29.93 in Calm     85 % 0.00 in 0 W/m2
00:06 61.2 °F 56.6 °F 29.93 in Calm   1.0 mph 85 % 0.00 in 0 W/m2
00:11 61.2 °F 56.6 °F 29.93 in NW 1.0 mph 5.0 mph 85 % 0.00 in 0 W/m2
00:16 61.0 °F 56.8 °F 29.93 in WNW 3.0 mph 7.0 mph 86 % 0.00 in 0 W/m2
00:21 61.0 °F 56.8 °F 29.93 in WNW 2.0 mph 7.0 mph 86 % 0.00 in 0 W/m2
00:26 61.0 °F 56.8 °F 29.93 in Calm   5.0 mph 86 % 0.00 in 0 W/m2
00:27 61.0 °F 56.8 °F 29.93 in Calm   5.0 mph 86 % 0.00 in 0 W/m2
00:32 60.8 °F 56.6 °F 29.93 in Calm     86 % 0.00 in 0 W/m2
00:36 60.6 °F 56.4 °F 29.92 in Calm     86 % 0.00 in 0 W/m2
00:42 60.4 °F 56.2 °F 29.92 in Calm     86 % 0.00 in 0 W/m2
00:47 60.4 °F 56.6 °F 29.92 in Calm     87 % 0.00 in 0 W/m2
00:52 60.4 °F 56.6 °F 29.92 in Calm   1.0 mph 87 % 0.00 in 0 W/m2
00:57 60.3 °F 56.4 °F 29.92 in Calm   1.0 mph 87 % 0.00 in 0 W/m2
01:02 60.3 °F 56.7 °F 29.92 in Calm     88 % 0.00 in 0 W/m2
01:07 60.1 °F 56.5 °F 29.92 in Calm     88 % 0.00 in 0 W/m2
01:12 60.1 °F 56.2 °F 29.92 in Calm   1.0 mph 87 % 0.00 in 0 W/m2
01:17 60.1 °F 56.5 °F 29.92 in West 1.0 mph 5.0 mph 88 % 0.00 in 0 W/m2
01:22 59.9 °F 56.3 °F 29.92 in West 1.0 mph 5.0 mph 88 % 0.00 in 0 W/m2
01:27 59.7 °F 56.2 °F 29.91 in Calm   4.0 mph 88 % 0.00 in 0 W/m2
01:32 59.7 °F 56.2 °F 29.91 in Calm   2.0 mph 88 % 0.00 in 0 W/m2
01:37 59.5 °F 56.0 °F 29.92 in Calm   2.0 mph 88 % 0.00 in 0 W/m2
01:42 59.5 °F 56.3 °F 29.92 in Calm   2.0 mph 89 % 0.00 in 0 W/m2
01:47 59.5 °F 56.0 °F 29.92 in Calm     88 % 0.00 in 0 W/m2
01:52 59.5 °F 56.0 °F 29.92 in Calm     88 % 0.00 in 0 W/m2
01:57 59.4 °F 56.1 °F 29.92 in Calm     89 % 0.00 in 0 W/m2
02:02 59.4 °F 56.1 °F 29.92 in Calm   5.0 mph 89 % 0.00 in 0 W/m2
02:07 59.2 °F 55.9 °F 29.92 in West 1.0 mph 5.0 mph 89 % 0.00 in 0 W/m2
02:12 59.2 °F 55.9 °F 29.92 in Calm   3.0 mph 89 % 0.00 in 0 W/m2
02:17 59.2 °F 55.9 °F 29.92 in Calm     89 % 0.00 in 0 W/m2
02:22 59.2 °F 55.9 °F 29.91 in Calm     89 % 0.00 in 0 W/m2
02:27 59.2 °F 56.2 °F 29.91 in Calm   6.0 mph 90 % 0.00 in 0 W/m2
02:32 59.2 °F 55.9 °F 29.92 in Calm   6.0 mph 89 % 0.00 in 0 W/m2
02:37 59.2 °F 56.2 °F 29.92 in Calm   1.0 mph 90 % 0.00 in 0 W/m2
02:42 59.0 °F 56.1 °F 29.92 in Calm   4.0 mph 90 % 0.00 in 0 W/m2
02:47 59.2 °F 56.2 °F 29.91 in Calm   4.0 mph 90 % 0.00 in 0 W/m2
02:52 59.2 °F 56.2 °F 29.92 in Calm   4.0 mph 90 % 0.00 in 0 W/m2
02:57 59.2 °F 56.2 °F 29.92 in Calm   4.0 mph 90 % 0.00 in 0 W/m2
03:02 59.2 °F 56.2 °F 29.92 in Calm   3.0 mph 90 % 0.00 in 0 W/m2
03:07 59.2 °F 56.2 °F 29.92 in WNW 1.0 mph 7.0 mph 90 % 0.00 in 0 W/m2
03:12 59.4 °F 56.7 °F 29.91 in WNW 1.0 mph 7.0 mph 91 % 0.00 in 0 W/m2
03:17 59.5 °F 56.9 °F 29.91 in Calm   5.0 mph 91 % 0.00 in 0 W/m2
03:22 59.7 °F 56.8 °F 29.91 in NW 2.0 mph 6.0 mph 90 % 0.00 in 0 W/m2
03:27 60.1 °F 57.1 °F 29.91 in NW 1.0 mph 6.0 mph 90 % 0.00 in 0 W/m2
03:32 60.1 °F 57.1 °F 29.91 in Calm   1.0 mph 90 % 0.00 in 0 W/m2
03:37 60.3 °F 57.0 °F 29.91 in Calm   1.0 mph 89 % 0.00 in 0 W/m2
03:42 60.3 °F 57.0 °F 29.91 in Calm   2.0 mph 89 % 0.00 in 0 W/m2
03:47 60.4 °F 57.2 °F 29.91 in WNW 1.0 mph 6.0 mph 89 % 0.00 in 0 W/m2
03:52 60.6 °F 57.7 °F 29.91 in West 4.0 mph 9.0 mph 90 % 0.00 in 0 W/m2
03:57 61.0 °F 58.0 °F 29.91 in West 5.0 mph 9.0 mph 90 % 0.00 in 0 W/m2
04:02 61.2 °F 57.9 °F 29.91 in WSW 6.0 mph 11.0 mph 89 % 0.00 in 0 W/m2
04:07 61.3 °F 58.1 °F 29.91 in WSW 6.0 mph 11.0 mph 89 % 0.00 in 0 W/m2
04:14 61.5 °F 57.9 °F 29.91 in West 6.0 mph 11.0 mph 88 % 0.00 in 0 W/m2
04:21 61.9 °F 58.3 °F 29.91 in West 6.0 mph 11.0 mph 88 % 0.00 in 0 W/m2
04:22 61.9 °F 58.3 °F 29.91 in West 6.0 mph 11.0 mph 88 % 0.00 in 0 W/m2
04:24 61.9 °F 58.3 °F 29.91 in West 6.0 mph 9.0 mph 88 % 0.00 in 0 W/m2
04:26 61.9 °F 58.3 °F 29.91 in West 5.0 mph 9.0 mph 88 % 0.00 in 0 W/m2
04:29 61.9 °F 58.3 °F 29.91 in WSW 5.0 mph 9.0 mph 88 % 0.00 in 0 W/m2
04:31 61.9 °F 58.3 °F 29.91 in WSW 5.0 mph 9.0 mph 88 % 0.00 in 0 W/m2
04:34 62.1 °F 58.1 °F 29.91 in WSW 5.0 mph 9.0 mph 87 % 0.00 in 0 W/m2
04:38 62.1 °F 58.1 °F 29.91 in WSW 5.0 mph 8.0 mph 87 % 0.00 in 0 W/m2
04:43 62.1 °F 58.1 °F 29.91 in WSW 5.0 mph 9.0 mph 87 % 0.00 in 0 W/m2
04:48 62.2 °F 58.3 °F 29.91 in West 6.0 mph 9.0 mph 87 % 0.00 in 0 W/m2
04:53 62.2 °F 58.3 °F 29.91 in West 5.0 mph 8.0 mph 87 % 0.00 in 0 W/m2
04:58 62.2 °F 58.3 °F 29.91 in West 4.0 mph 9.0 mph 87 % 0.00 in 0 W/m2
05:03 62.2 °F 58.3 °F 29.91 in West 5.0 mph 9.0 mph 87 % 0.00 in 0 W/m2
05:08 62.2 °F 58.3 °F 29.90 in WSW 5.0 mph 8.0 mph 87 % 0.00 in 0 W/m2
05:13 62.2 °F 58.3 °F 29.90 in WSW 4.0 mph 8.0 mph 87 % 0.00 in 0 W/m2
05:18 62.2 °F 58.3 °F 29.90 in SW 5.0 mph 9.0 mph 87 % 0.00 in 0 W/m2
05:24 62.2 °F 58.6 °F 29.90 in WSW 4.0 mph 9.0 mph 88 % 0.00 in 0 W/m2
05:29 62.1 °F 58.5 °F 29.90 in WSW 3.0 mph 7.0 mph 88 % 0.00 in 0 W/m2
05:34 62.1 °F 58.5 °F 29.90 in SW 3.0 mph 6.0 mph 88 % 0.00 in 0 W/m2
05:39 62.1 °F 58.8 °F 29.90 in SSW 3.0 mph 6.0 mph 89 % 0.00 in 0 W/m2
05:44 61.9 °F 58.6 °F 29.90 in SSW 1.0 mph 5.0 mph 89 % 0.00 in 0 W/m2
05:49 61.9 °F 58.6 °F 29.90 in Calm   2.0 mph 89 % 0.00 in 0 W/m2
05:54 61.7 °F 58.4 °F 29.90 in Calm     89 % 0.00 in 0 W/m2
05:59 61.7 °F 58.4 °F 29.89 in Calm   5.0 mph 89 % 0.00 in 0 W/m2
06:04 61.7 °F 58.4 °F 29.89 in SSW 1.0 mph 5.0 mph 89 % 0.00 in 0 W/m2
06:09 61.7 °F 58.4 °F 29.89 in SSW 2.0 mph 5.0 mph 89 % 0.00 in 0 W/m2
06:14 61.7 °F 58.4 °F 29.89 in SSW 1.0 mph 5.0 mph 89 % 0.00 in 0 W/m2
06:19 61.7 °F 58.4 °F 29.89 in SSW 1.0 mph 5.0 mph 89 % 0.00 in 0 W/m2
06:24 61.7 °F 58.4 °F 29.89 in SW 2.0 mph 6.0 mph 89 % 0.00 in 0 W/m2
06:29 61.7 °F 58.4 °F 29.89 in SW 1.0 mph 6.0 mph 89 % 0.00 in 0 W/m2
06:34 61.7 °F 58.4 °F 29.89 in Calm   2.0 mph 89 % 0.00 in 5 W/m2
06:39 61.7 °F 58.4 °F 29.89 in Calm     89 % 0.00 in 0 W/m2
06:44 61.7 °F 58.4 °F 29.89 in Calm     89 % 0.00 in 5 W/m2
06:49 61.7 °F 58.4 °F 29.90 in Calm     89 % 0.00 in 5 W/m2
06:54 61.7 °F 58.4 °F 29.89 in Calm   5.0 mph 89 % 0.00 in 14 W/m2
06:59 61.9 °F 58.9 °F 29.90 in West 2.0 mph 7.0 mph 90 % 0.00 in 19 W/m2
07:04 61.9 °F 58.9 °F 29.90 in WSW 3.0 mph 7.0 mph 90 % 0.00 in 18 W/m2
07:09 61.9 °F 58.9 °F 29.90 in West 4.0 mph 10.0 mph 90 % 0.00 in 16 W/m2
07:14 61.9 °F 58.9 °F 29.90 in West 6.0 mph 10.0 mph 90 % 0.00 in 19 W/m2
07:19 62.1 °F 59.1 °F 29.90 in WNW 7.0 mph 10.0 mph 90 % 0.00 in 28 W/m2
07:24 62.1 °F 59.1 °F 29.90 in WNW 7.0 mph 13.0 mph 90 % 0.00 in 21 W/m2
07:29 61.5 °F 58.2 °F 29.90 in NW 7.0 mph 15.0 mph 89 % 0.00 in 21 W/m2
07:34 61.0 °F 57.7 °F 29.90 in NW 8.0 mph 15.0 mph 89 % 0.00 in 49 W/m2
07:39 60.6 °F 57.7 °F 29.90 in NW 6.0 mph 11.0 mph 90 % 0.00 in 42 W/m2
07:44 60.4 °F 57.8 °F 29.90 in NW 5.0 mph 11.0 mph 91 % 0.00 in 49 W/m2
07:49 60.3 °F 57.6 °F 29.90 in NW 5.0 mph 10.0 mph 91 % 0.00 in 47 W/m2
07:54 60.1 °F 57.4 °F 29.90 in NW 5.0 mph 9.0 mph 91 % 0.00 in 32 W/m2
07:59 59.9 °F 57.3 °F 29.90 in NW 5.0 mph 10.0 mph 91 % 0.00 in 58 W/m2
08:04 59.5 °F 56.9 °F 29.90 in WNW 6.0 mph 11.0 mph 91 % 0.00 in 56 W/m2
08:09 59.5 °F 56.9 °F 29.90 in WNW 6.0 mph 11.0 mph 91 % 0.00 in 49 W/m2
08:14 59.4 °F 56.7 °F 29.91 in WNW 6.0 mph 12.0 mph 91 % 0.00 in 46 W/m2
08:19 59.4 °F 56.7 °F 29.91 in WNW 7.0 mph 12.0 mph 91 % 0.00 in 56 W/m2
08:24 59.4 °F 56.7 °F 29.91 in WNW 6.0 mph 11.0 mph 91 % 0.00 in 47 W/m2
08:29 59.4 °F 56.4 °F 29.91 in WNW 6.0 mph 11.0 mph 90 % 0.00 in 47 W/m2
08:34 59.4 °F 56.4 °F 29.91 in WNW 6.0 mph 11.0 mph 90 % 0.00 in 58 W/m2
08:39 59.4 °F 56.7 °F 29.91 in WNW 6.0 mph 10.0 mph 91 % 0.00 in 74 W/m2
08:44 59.4 °F 56.7 °F 29.92 in WNW 5.0 mph 9.0 mph 91 % 0.00 in 70 W/m2
08:49 59.5 °F 56.6 °F 29.92 in WNW 5.0 mph 9.0 mph 90 % 0.00 in 53 W/m2
08:54 59.4 °F 56.4 °F 29.92 in WNW 6.0 mph 9.0 mph 90 % 0.00 in 51 W/m2
08:59 59.5 °F 56.6 °F 29.92 in WNW 6.0 mph 9.0 mph 90 % 0.00 in 40 W/m2
09:04 59.4 °F 56.1 °F 29.92 in WNW 6.0 mph 10.0 mph 89 % 0.00 in 49 W/m2
09:09 59.4 °F 56.1 °F 29.92 in NW 7.0 mph 12.0 mph 89 % 0.00 in 65 W/m2
09:14 59.4 °F 56.1 °F 29.92 in NW 6.0 mph 12.0 mph 89 % 0.00 in 90 W/m2
09:19 59.4 °F 56.1 °F 29.92 in NW 4.0 mph 10.0 mph 89 % 0.00 in 135 W/m2
09:24 59.5 °F 56.3 °F 29.91 in NW 4.0 mph 11.0 mph 89 % 0.00 in 135 W/m2
09:29 59.7 °F 56.2 °F 29.91 in NW 5.0 mph 11.0 mph 88 % 0.00 in 188 W/m2
09:34 59.9 °F 56.3 °F 29.91 in NW 5.0 mph 9.0 mph 88 % 0.00 in 139 W/m2
09:39 60.3 °F 56.4 °F 29.92 in NW 4.0 mph 9.0 mph 87 % 0.00 in 130 W/m2
09:44 60.3 °F 56.1 °F 29.92 in NW 5.0 mph 9.0 mph 86 % 0.00 in 146 W/m2
09:49 60.3 °F 56.1 °F 29.92 in NW 5.0 mph 10.0 mph 86 % 0.00 in 151 W/m2
09:54 60.4 °F 55.9 °F 29.92 in NW 6.0 mph 10.0 mph 85 % 0.00 in 153 W/m2
09:59 60.6 °F 56.1 °F 29.92 in NW 5.0 mph 10.0 mph 85 % 0.00 in 162 W/m2
10:04 60.6 °F 56.1 °F 29.92 in NW 5.0 mph 11.0 mph 85 % 0.00 in 153 W/m2
10:05 60.8 °F 56.3 °F 29.92 in NW 5.0 mph 11.0 mph 85 % 0.00 in 153 W/m2
10:09 60.6 °F 55.4 °F 29.92 in WNW 7.0 mph 15.0 mph 83 % 0.00 in 141 W/m2
10:15 60.6 °F 55.1 °F 29.93 in WNW 8.0 mph 15.0 mph 82 % 0.00 in 127 W/m2
10:20 60.6 °F 54.8 °F 29.93 in NW 8.0 mph 14.0 mph 81 % 0.00 in 183 W/m2
10:25 60.6 °F 54.8 °F 29.93 in NW 8.0 mph 14.0 mph 81 % 0.00 in 202 W/m2
10:30 60.8 °F 54.9 °F 29.93 in NW 8.0 mph 16.0 mph 81 % 0.00 in 206 W/m2
10:35 60.6 °F 54.8 °F 29.93 in NW 8.0 mph 16.0 mph 81 % 0.00 in 162 W/m2
10:40 60.6 °F 54.8 °F 29.93 in WNW 8.0 mph 13.0 mph 81 % 0.00 in 130 W/m2
10:45 60.4 °F 55.3 °F 29.94 in WNW 8.0 mph 13.0 mph 83 % 0.00 in 79 W/m2
10:50 60.3 °F 55.4 °F 29.94 in WNW 8.0 mph 13.0 mph 84 % 0.00 in 70 W/m2
10:55 59.7 °F 54.5 °F 29.94 in WNW 8.0 mph 14.0 mph 83 % 0.00 in 121 W/m2
11:00 59.2 °F 54.0 °F 29.94 in NW 8.0 mph 16.0 mph 83 % 0.00 in 149 W/m2
11:05 59.2 °F 54.0 °F 29.94 in NW 7.0 mph 16.0 mph 83 % 0.00 in 230 W/m2
11:10 59.4 °F 53.9 °F 29.94 in WNW 6.0 mph 11.0 mph 82 % 0.00 in 306 W/m2
11:15 59.7 °F 53.5 °F 29.94 in WNW 7.0 mph 13.0 mph 80 % 0.00 in 362 W/m2
11:20 60.3 °F 54.1 °F 29.93 in WNW 7.0 mph 13.0 mph 80 % 0.00 in 439 W/m2
11:25 61.0 °F 54.1 °F 29.93 in WNW 7.0 mph 14.0 mph 78 % 0.00 in 461 W/m2
11:30 61.5 °F 54.2 °F 29.93 in WNW 7.0 mph 14.0 mph 77 % 0.00 in 397 W/m2
11:35 61.9 °F 54.2 °F 29.93 in WNW 8.0 mph 13.0 mph 76 % 0.00 in 334 W/m2
11:40 62.2 °F 54.2 °F 29.92 in WNW 8.0 mph 13.0 mph 75 % 0.00 in 281 W/m2
11:45 62.4 °F 54.0 °F 29.93 in WNW 8.0 mph 16.0 mph 74 % 0.00 in 250 W/m2
11:50 62.2 °F 53.5 °F 29.92 in WNW 9.0 mph 16.0 mph 73 % 0.00 in 828 W/m2
11:55 62.8 °F 53.6 °F 29.92 in WNW 10.0 mph 15.0 mph 72 % 0.00 in 694 W/m2
12:00 63.3 °F 53.4 °F 29.92 in WNW 9.0 mph 15.0 mph 70 % 0.00 in 726 W/m2
12:05 64.0 °F 54.1 °F 29.92 in WNW 8.0 mph 14.0 mph 70 % 0.00 in 793 W/m2
12:10 64.4 °F 53.6 °F 29.91 in West 8.0 mph 13.0 mph 68 % 0.00 in 770 W/m2
12:15 64.4 °F 53.2 °F 29.92 in West 10.0 mph 16.0 mph 67 % 0.00 in 844 W/m2
12:20 64.4 °F 53.2 °F 29.91 in West 9.0 mph 16.0 mph 67 % 0.00 in 824 W/m2
12:25 64.6 °F 53.4 °F 29.91 in West 9.0 mph 15.0 mph 67 % 0.00 in 872 W/m2
12:30 65.1 °F 53.9 °F 29.92 in WNW 9.0 mph 16.0 mph 67 % 0.00 in 963 W/m2
12:35 65.7 °F 53.1 °F 29.92 in WNW 9.0 mph 16.0 mph 64 % 0.00 in 925 W/m2
12:40 66.0 °F 53.5 °F 29.92 in West 9.0 mph 16.0 mph 64 % 0.00 in 824 W/m2
12:43 66.0 °F 52.6 °F 29.92 in West 8.0 mph 14.0 mph 62 % 0.00 in 179 W/m2
12:48 65.7 °F 51.8 °F 29.92 in West 8.0 mph 14.0 mph 61 % 0.00 in 315 W/m2
12:53 65.3 °F 51.5 °F 29.92 in West 9.0 mph 15.0 mph 61 % 0.00 in 355 W/m2
12:58 65.1 °F 51.8 °F 29.92 in West 8.0 mph 15.0 mph 62 % 0.00 in 234 W/m2
13:03 64.9 °F 51.2 °F 29.92 in WNW 7.0 mph 13.0 mph 61 % 0.00 in 297 W/m2
13:08 64.9 °F 51.2 °F 29.92 in WNW 6.0 mph 10.0 mph 61 % 0.00 in 290 W/m2
13:13 64.9 °F 51.2 °F 29.91 in West 7.0 mph 14.0 mph 61 % 0.00 in 350 W/m2
13:18 64.9 °F 50.7 °F 29.91 in WNW 9.0 mph 14.0 mph 60 % 0.00 in 267 W/m2
13:23 64.9 °F 51.6 °F 29.91 in WNW 7.0 mph 14.0 mph 62 % 0.00 in 534 W/m2
13:28 65.5 °F 51.7 °F 29.92 in WNW 6.0 mph 12.0 mph 61 % 0.00 in 752 W/m2
13:33 65.8 °F 51.1 °F 29.92 in WNW 9.0 mph 16.0 mph 59 % 0.00 in 584 W/m2
13:38 65.8 °F 50.6 °F 29.92 in WNW 11.0 mph 18.0 mph 58 % 0.00 in 469 W/m2
13:43 65.8 °F 50.6 °F 29.92 in WNW 11.0 mph 18.0 mph 58 % 0.00 in 473 W/m2
13:48 65.8 °F 50.6 °F 29.92 in WNW 11.0 mph 20.0 mph 58 % 0.00 in 469 W/m2
13:53 66.4 °F 51.2 °F 29.92 in WNW 11.0 mph 20.0 mph 58 % 0.00 in 1013 W/m2
13:58 66.0 °F 49.9 °F 29.92 in WNW 12.0 mph 20.0 mph 56 % 0.00 in 374 W/m2
14:03 65.8 °F 50.2 °F 29.92 in WNW 11.0 mph 20.0 mph 57 % 0.00 in 512 W/m2
14:08 66.0 °F 50.3 °F 29.92 in WNW 11.0 mph 18.0 mph 57 % 0.00 in 700 W/m2
14:14 66.2 °F 50.0 °F 29.92 in WNW 10.0 mph 18.0 mph 56 % 0.00 in 566 W/m2
14:19 66.2 °F 49.1 °F 29.92 in WNW 10.0 mph 18.0 mph 54 % 0.00 in 425 W/m2
14:24 66.0 °F 48.9 °F 29.92 in WNW 10.0 mph 18.0 mph 54 % 0.00 in 429 W/m2
14:29 66.2 °F 49.6 °F 29.91 in WNW 9.0 mph 18.0 mph 55 % 0.00 in 417 W/m2
14:34 66.4 °F 48.7 °F 29.90 in West 8.0 mph 14.0 mph 53 % 0.00 in 520 W/m2
14:39 66.6 °F 49.4 °F 29.91 in West 8.0 mph 14.0 mph 54 % 0.00 in 401 W/m2
14:44 66.6 °F 48.4 °F 29.91 in WNW 8.0 mph 14.0 mph 52 % 0.00 in 301 W/m2
14:49 66.4 °F 48.7 °F 29.91 in NW 8.0 mph 14.0 mph 53 % 0.00 in 297 W/m2
14:54 66.2 °F 48.6 °F 29.91 in WNW 8.0 mph 14.0 mph 53 % 0.00 in 287 W/m2
14:59 65.8 °F 48.7 °F 29.91 in WNW 9.0 mph 14.0 mph 54 % 0.00 in 248 W/m2
15:04 65.5 °F 47.9 °F 29.91 in WNW 9.0 mph 14.0 mph 53 % 0.00 in 234 W/m2
15:09 64.9 °F 47.9 °F 29.91 in WNW 8.0 mph 15.0 mph 54 % 0.00 in 209 W/m2
15:14 64.6 °F 48.0 °F 29.91 in WNW 8.0 mph 15.0 mph 55 % 0.00 in 192 W/m2
15:19 64.2 °F 47.7 °F 29.91 in WNW 9.0 mph 14.0 mph 55 % 0.00 in 192 W/m2
15:24 64.0 °F 48.5 °F 29.91 in NW 8.0 mph 14.0 mph 57 % 0.00 in 179 W/m2
15:29 63.9 °F 48.3 °F 29.91 in WNW 7.0 mph 14.0 mph 57 % 0.00 in 158 W/m2
15:34 63.7 °F 48.2 °F 29.91 in NW 7.0 mph 13.0 mph 57 % 0.00 in 141 W/m2
15:39 63.5 °F 48.5 °F 29.91 in WNW 7.0 mph 12.0 mph 58 % 0.00 in 149 W/m2
15:44 63.3 °F 48.3 °F 29.91 in WNW 7.0 mph 12.0 mph 58 % 0.00 in 156 W/m2
15:49 63.3 °F 48.7 °F 29.91 in WNW 7.0 mph 13.0 mph 59 % 0.00 in 156 W/m2
15:54 63.1 °F 49.0 °F 29.91 in NW 7.0 mph 13.0 mph 60 % 0.00 in 144 W/m2
16:00 63.0 °F 48.9 °F 29.91 in WNW 7.0 mph 14.0 mph 60 % 0.00 in 174 W/m2
16:05 62.8 °F 48.7 °F 29.91 in WNW 8.0 mph 14.0 mph 60 % 0.00 in 176 W/m2
16:10 62.8 °F 49.1 °F 29.91 in WNW 8.0 mph 14.0 mph 61 % 0.00 in 185 W/m2
16:15 62.6 °F 48.5 °F 29.91 in WNW 8.0 mph 16.0 mph 60 % 0.00 in 169 W/m2
16:20 62.2 °F 48.2 °F 29.92 in WNW 8.0 mph 16.0 mph 60 % 0.00 in 171 W/m2
16:25 62.1 °F 48.0 °F 29.91 in WNW 8.0 mph 14.0 mph 60 % 0.00 in 178 W/m2
16:30 62.1 °F 48.0 °F 29.91 in WNW 9.0 mph 14.0 mph 60 % 0.00 in 172 W/m2
16:35 62.1 °F 48.4 °F 29.91 in WNW 8.0 mph 14.0 mph 61 % 0.00 in 223 W/m2
16:40 62.1 °F 48.0 °F 29.91 in WNW 7.0 mph 12.0 mph 60 % 0.00 in 216 W/m2
16:45 62.2 °F 48.2 °F 29.91 in West 7.0 mph 12.0 mph 60 % 0.00 in 204 W/m2
16:50 62.1 °F 48.4 °F 29.91 in West 8.0 mph 13.0 mph 61 % 0.00 in 181 W/m2
16:55 62.1 °F 48.9 °F 29.91 in West 7.0 mph 13.0 mph 62 % 0.00 in 172 W/m2
17:00 62.1 °F 48.9 °F 29.91 in WNW 6.0 mph 11.0 mph 62 % 0.00 in 172 W/m2
17:05 62.1 °F 48.9 °F 29.91 in WNW 6.0 mph 12.0 mph 62 % 0.00 in 176 W/m2
17:10 62.1 °F 49.3 °F 29.91 in West 6.0 mph 12.0 mph 63 % 0.00 in 127 W/m2
17:15 62.2 °F 49.9 °F 29.91 in WNW 5.0 mph 9.0 mph 64 % 0.00 in 142 W/m2
17:20 62.2 °F 49.5 °F 29.92 in WNW 6.0 mph 13.0 mph 63 % 0.00 in 169 W/m2
17:25 62.1 °F 49.3 °F 29.92 in WNW 7.0 mph 13.0 mph 63 % 0.00 in 125 W/m2
17:30 61.9 °F 49.1 °F 29.92 in WNW 7.0 mph 13.0 mph 63 % 0.00 in 109 W/m2
17:31 61.9 °F 49.1 °F 29.92 in WNW 7.0 mph 13.0 mph 63 % 0.00 in 102 W/m2
17:36 61.7 °F 49.4 °F 29.91 in WNW 6.0 mph 10.0 mph 64 % 0.00 in 79 W/m2
17:41 61.5 °F 49.2 °F 29.91 in WNW 5.0 mph 10.0 mph 64 % 0.00 in 72 W/m2
17:46 61.3 °F 49.1 °F 29.92 in NW 5.0 mph 10.0 mph 64 % 0.00 in 62 W/m2
17:51 61.2 °F 48.9 °F 29.91 in NW 5.0 mph 8.0 mph 64 % 0.00 in 65 W/m2
17:56 61.0 °F 49.1 °F 29.92 in NW 5.0 mph 10.0 mph 65 % 0.00 in 93 W/m2
18:01 60.8 °F 49.4 °F 29.92 in NW 5.0 mph 10.0 mph 66 % 0.00 in 65 W/m2
18:07 60.6 °F 48.8 °F 29.92 in NW 5.0 mph 10.0 mph 65 % 0.00 in 54 W/m2
18:12 60.4 °F 48.6 °F 29.92 in NW 5.0 mph 11.0 mph 65 % 0.00 in 46 W/m2
18:17 60.3 °F 48.0 °F 29.92 in NW 7.0 mph 12.0 mph 64 % 0.00 in 53 W/m2
18:22 59.9 °F 46.8 °F 29.92 in NW 7.0 mph 12.0 mph 62 % 0.00 in 44 W/m2
18:27 59.5 °F 46.5 °F 29.92 in NW 7.0 mph 12.0 mph 62 % 0.00 in 40 W/m2
18:32 59.5 °F 46.5 °F 29.91 in NW 5.0 mph 12.0 mph 62 % 0.00 in 33 W/m2
18:37 59.4 °F 46.3 °F 29.91 in NW 4.0 mph 9.0 mph 62 % 0.00 in 30 W/m2
18:42 59.4 °F 46.3 °F 29.91 in WNW 4.0 mph 8.0 mph 62 % 0.00 in 25 W/m2
18:47 59.2 °F 46.2 °F 29.91 in WNW 4.0 mph 8.0 mph 62 % 0.00 in 21 W/m2
18:52 59.2 °F 46.6 °F 29.91 in NW 4.0 mph 8.0 mph 63 % 0.00 in 16 W/m2
18:57 59.0 °F 46.0 °F 29.91 in NW 5.0 mph 10.0 mph 62 % 0.00 in 14 W/m2
19:02 58.8 °F 46.2 °F 29.91 in NW 5.0 mph 10.0 mph 63 % 0.00 in 16 W/m2
19:07 58.6 °F 46.1 °F 29.91 in NW 4.0 mph 9.0 mph 63 % 0.00 in 14 W/m2
19:12 58.6 °F 46.5 °F 29.91 in NW 4.0 mph 8.0 mph 64 % 0.00 in 16 W/m2
19:17 58.5 °F 46.7 °F 29.91 in NW 4.0 mph 8.0 mph 65 % 0.00 in 21 W/m2
19:22 58.3 °F 46.6 °F 29.91 in NW 5.0 mph 8.0 mph 65 % 0.00 in 18 W/m2
19:27 58.3 °F 47.0 °F 29.91 in WNW 5.0 mph 9.0 mph 66 % 0.00 in 11 W/m2
19:32 58.1 °F 47.2 °F 29.91 in NW 4.0 mph 9.0 mph 67 % 0.00 in 11 W/m2
19:37 57.9 °F 47.4 °F 29.91 in NW 5.0 mph 8.0 mph 68 % 0.00 in 11 W/m2
19:42 57.9 °F 47.4 °F 29.91 in NW 5.0 mph 8.0 mph 68 % 0.00 in 11 W/m2
19:47 57.9 °F 47.8 °F 29.91 in NW 5.0 mph 8.0 mph 69 % 0.00 in 7 W/m2
19:52 57.7 °F 48.0 °F 29.91 in WNW 4.0 mph 8.0 mph 70 % 0.00 in 0 W/m2
19:57 57.7 °F 48.0 °F 29.92 in WNW 4.0 mph 8.0 mph 70 % 0.00 in 0 W/m2
20:02 57.7 °F 48.0 °F 29.92 in WNW 4.0 mph 10.0 mph 70 % 0.00 in 0 W/m2
20:12 57.6 °F 48.2 °F 29.92 in NW 5.0 mph 9.0 mph 71 % 0.00 in 0 W/m2
20:17 57.4 °F 48.1 °F 29.92 in NW 4.0 mph 8.0 mph 71 % 0.00 in 0 W/m2
20:22 57.4 °F 48.1 °F 29.92 in WNW 4.0 mph 8.0 mph 71 % 0.00 in 0 W/m2
20:27 57.4 °F 48.1 °F 29.92 in WNW 3.0 mph 7.0 mph 71 % 0.00 in 0 W/m2
20:32 57.2 °F 48.3 °F 29.91 in NW 3.0 mph 7.0 mph 72 % 0.00 in 0 W/m2
20:37 57.0 °F 48.1 °F 29.91 in NW 3.0 mph 6.0 mph 72 % 0.00 in 0 W/m2
20:42 57.0 °F 48.1 °F 29.92 in NW 3.0 mph 6.0 mph 72 % 0.00 in 0 W/m2
20:47 56.8 °F 48.3 °F 29.92 in NW 3.0 mph 6.0 mph 73 % 0.00 in 0 W/m2
20:52 56.8 °F 48.3 °F 29.92 in NW 2.0 mph 5.0 mph 73 % 0.00 in 0 W/m2
20:57 56.8 °F 48.6 °F 29.92 in NW 1.0 mph 4.0 mph 74 % 0.00 in 0 W/m2
21:02 56.8 °F 48.6 °F 29.92 in NW 1.0 mph 4.0 mph 74 % 0.00 in 0 W/m2
21:07 56.8 °F 49.0 °F 29.92 in NW 1.0 mph 5.0 mph 75 % 0.00 in 0 W/m2
21:12 56.7 °F 48.8 °F 29.92 in NW 1.0 mph 5.0 mph 75 % 0.00 in 0 W/m2
21:17 56.5 °F 49.0 °F 29.92 in NW 2.0 mph 4.0 mph 76 % 0.00 in 0 W/m2
21:22 56.5 °F 49.0 °F 29.92 in NW 1.0 mph 4.0 mph 76 % 0.00 in 0 W/m2
21:27 56.3 °F 49.2 °F 29.92 in Calm   3.0 mph 77 % 0.00 in 0 W/m2
21:32 56.1 °F 49.0 °F 29.92 in NW 1.0 mph 4.0 mph 77 % 0.00 in 0 W/m2
21:38 56.1 °F 49.4 °F 29.92 in WNW 2.0 mph 5.0 mph 78 % 0.00 in 0 W/m2
21:43 55.9 °F 49.2 °F 29.92 in WNW 2.0 mph 5.0 mph 78 % 0.00 in 0 W/m2
21:48 55.8 °F 49.0 °F 29.92 in WNW 1.0 mph 4.0 mph 78 % 0.00 in 0 W/m2
21:53 55.8 °F 49.0 °F 29.92 in WNW 1.0 mph 4.0 mph 78 % 0.00 in 0 W/m2
21:58 55.8 °F 49.0 °F 29.91 in WNW 1.0 mph 5.0 mph 78 % 0.00 in 0 W/m2
22:03 55.6 °F 48.5 °F 29.91 in WNW 3.0 mph 7.0 mph 77 % 0.00 in 0 W/m2
22:13 55.4 °F 48.3 °F 29.91 in WSW 4.0 mph 8.0 mph 77 % 0.00 in 0 W/m2
22:18 55.2 °F 48.1 °F 29.91 in WSW 2.0 mph 6.0 mph 77 % 0.00 in 0 W/m2
22:23 55.0 °F 48.0 °F 29.91 in Calm   4.0 mph 77 % 0.00 in 0 W/m2
22:28 55.0 °F 48.3 °F 29.91 in Calm   3.0 mph 78 % 0.00 in 0 W/m2
22:33 55.0 °F 48.0 °F 29.91 in Calm   3.0 mph 77 % 0.00 in 0 W/m2
22:38 55.0 °F 48.0 °F 29.90 in Calm   2.0 mph 77 % 0.00 in 0 W/m2
22:43 55.0 °F 48.0 °F 29.91 in Calm   4.0 mph 77 % 0.00 in 0 W/m2
22:48 54.9 °F 47.8 °F 29.91 in WSW 1.0 mph 5.0 mph 77 % 0.00 in 0 W/m2
22:53 54.9 °F 47.8 °F 29.91 in WSW 1.0 mph 5.0 mph 77 % 0.00 in 0 W/m2
22:58 54.9 °F 47.8 °F 29.91 in Calm   5.0 mph 77 % 0.00 in 0 W/m2
23:03 54.9 °F 47.8 °F 29.92 in Calm   1.0 mph 77 % 0.00 in 0 W/m2
23:08 54.9 °F 47.8 °F 29.92 in Calm   1.0 mph 77 % 0.00 in 0 W/m2
23:13 54.7 °F 47.6 °F 29.92 in Calm   4.0 mph 77 % 0.00 in 0 W/m2
23:18 54.7 °F 47.6 °F 29.92 in Calm   4.0 mph 77 % 0.00 in 0 W/m2
23:23 54.7 °F 48.0 °F 29.92 in WSW 1.0 mph 4.0 mph 78 % 0.00 in 0 W/m2
23:28 54.7 °F 48.0 °F 29.92 in Calm   4.0 mph 78 % 0.00 in 0 W/m2
23:33 54.7 °F 48.3 °F 29.92 in Calm     79 % 0.00 in 0 W/m2
23:38 54.5 °F 48.1 °F 29.92 in Calm     79 % 0.00 in 0 W/m2
23:43 54.3 °F 47.9 °F 29.92 in Calm     79 % 0.00 in 0 W/m2
23:48 54.3 °F 48.3 °F 29.92 in Calm   2.0 mph 80 % 0.00 in 0 W/m2
23:53 54.3 °F 48.3 °F 29.92 in Calm   2.0 mph 80 % 0.00 in 0 W/m2
23:58 54.3 °F 48.3 °F 29.92 in WSW 1.0 mph 4.0 mph 80 % 0.00 in 0 W/m2
Delerius-Weather
Compliments of Weather Underground - 2.25 mb

Data updates at regular intervals.